Time;durP1;ratioP1;P1;durP2;ratioP2;P2;SDS_P1;SDS_P2;PMS_P1;PMS_P2;Temp;Humidity;BMP_temperature;BMP_pressure;BME280_temperature;BME280_humidity;BME280_pressure;Samples;Min_cycle;Max_cycle;Signal;HPM_P1;HPM_P2
2022/09/30 00:01:07;;;;;;;24.25;11.20;;;;;;;-145.01;100.00;64805.59;5048328;28;20043;-55
2022/09/30 00:03:32;;;;;;;21.20;10.68;;;;;;;-145.01;100.00;64805.59;5048715;28;20060;-56
2022/09/30 00:05:59;;;;;;;16.38;8.88;;;;;;;-145.01;100.00;64805.59;5054029;28;20055;-55
2022/09/30 00:08:24;;;;;;;16.05;9.68;;;;;;;-145.01;100.00;64805.59;5052531;28;20025;-54
2022/09/30 00:11:13;;;;;;;20.58;12.32;;;;;;;-145.01;100.00;64805.59;5052502;28;20029;-54
2022/09/30 00:13:39;;;;;;;18.80;11.63;;;;;;;-145.01;100.00;64805.59;5057972;28;20033;-53
2022/09/30 00:16:05;;;;;;;16.77;9.73;;;;;;;-145.01;100.00;64805.59;5053705;28;20496;-55
2022/09/30 00:18:31;;;;;;;17.95;10.02;;;;;;;-145.01;100.00;64805.59;5053220;28;20390;-54
2022/09/30 00:20:56;;;;;;;18.63;10.57;;;;;;;-145.01;100.00;64805.59;5048148;28;20466;-52
2022/09/30 00:23:22;;;;;;;15.40;9.90;;;;;;;-145.01;100.00;64805.59;5054280;28;20026;-55
2022/09/30 00:25:47;;;;;;;16.67;9.63;;;;;;;-145.01;100.00;64805.59;5052823;28;20031;-55
2022/09/30 00:28:14;;;;;;;15.82;9.73;;;;;;;-145.01;100.00;64805.59;5053413;28;20434;-53
2022/09/30 00:30:39;;;;;;;17.50;10.05;;;;;;;-145.01;100.00;64805.59;5055688;28;20028;-52
2022/09/30 00:33:05;;;;;;;15.38;9.68;;;;;;;-145.01;100.00;64805.59;5062488;28;20025;-53
2022/09/30 00:35:30;;;;;;;20.73;10.95;;;;;;;-145.01;100.00;64805.59;5052463;28;20025;-54
2022/09/30 00:37:56;;;;;;;21.65;11.32;;;;;;;-145.01;100.00;64805.59;5052340;28;20025;-53
2022/09/30 00:40:21;;;;;;;19.55;10.88;;;;;;;-145.01;100.00;64805.59;5050745;28;20036;-54
2022/09/30 00:42:48;;;;;;;26.52;11.90;;;;;;;-145.01;100.00;64805.59;5052353;28;20033;-52
2022/09/30 00:45:16;;;;;;;21.15;11.00;;;;;;;-145.01;100.00;64805.59;5051352;28;20036;-56
2022/09/30 00:47:47;;;;;;;19.48;11.32;;;;;;;-145.01;100.00;64805.59;5056949;28;20502;-53
2022/09/30 00:50:23;;;;;;;20.67;11.13;;;;;;;-145.01;100.00;64805.59;5056463;28;20037;-54
2022/09/30 00:53:09;;;;;;;16.73;9.75;;;;;;;-145.01;100.00;64805.59;5059206;28;20112;-52
2022/09/30 00:55:45;;;;;;;24.92;10.40;;;;;;;-145.01;100.00;64805.59;5059532;28;20589;-54
2022/09/30 00:58:13;;;;;;;16.95;9.45;;;;;;;-145.01;100.00;64805.59;5050657;28;20132;-53
2022/09/30 01:00:39;;;;;;;21.70;11.15;;;;;;;-145.01;100.00;64805.59;5054089;28;20056;-54
2022/09/30 01:03:04;;;;;;;16.10;9.77;;;;;;;-145.01;100.00;64805.59;5051150;28;20033;-53
2022/09/30 01:05:30;;;;;;;15.48;10.05;;;;;;;-145.01;100.00;64805.59;5055464;28;20507;-54
2022/09/30 01:07:55;;;;;;;19.25;10.57;;;;;;;-145.01;100.00;64805.59;5055051;28;20025;-54
2022/09/30 01:10:21;;;;;;;19.20;10.52;;;;;;;-145.01;100.00;64805.59;5059280;28;20029;-51
2022/09/30 01:12:46;;;;;;;19.08;10.02;;;;;;;-145.01;100.00;64805.59;5058309;28;20260;-53
2022/09/30 01:15:12;;;;;;;18.58;10.25;;;;;;;-145.01;100.00;64805.59;5058959;28;20158;-52
2022/09/30 01:17:49;;;;;;;19.20;10.65;;;;;;;-145.01;100.00;64805.59;5052423;28;20090;-54
2022/09/30 01:20:52;;;;;;;13.73;8.93;;;;;;;-145.01;100.00;64805.59;5052354;28;20037;-53
2022/09/30 01:23:46;;;;;;;15.48;8.15;;;;;;;-145.01;100.00;64805.59;5042043;28;20036;-55
2022/09/30 01:26:30;;;;;;;14.38;9.30;;;;;;;-145.01;100.00;64805.59;5059403;28;20041;-55
2022/09/30 01:28:59;;;;;;;13.20;8.43;;;;;;;-145.01;100.00;64805.59;5057090;28;20036;-54
2022/09/30 01:31:40;;;;;;;18.85;9.05;;;;;;;-145.01;100.00;64805.59;5052520;28;20083;-54
2022/09/30 01:34:20;;;;;;;16.67;9.93;;;;;;;-145.01;100.00;64805.59;5051325;28;20037;-55
2022/09/30 01:36:53;;;;;;;15.13;9.07;;;;;;;-145.01;100.00;64805.59;5054079;28;20074;-54
2022/09/30 01:39:45;;;;;;;16.33;10.27;;;;;;;-145.01;100.00;64805.59;5049983;28;20082;-54
2022/09/30 01:42:22;;;;;;;22.85;11.10;;;;;;;-145.01;100.00;64805.59;5053704;28;20024;-54
2022/09/30 01:44:51;;;;;;;21.02;11.55;;;;;;;-145.01;100.00;64805.59;5055151;28;20036;-53
2022/09/30 01:47:25;;;;;;;17.67;11.57;;;;;;;-145.01;100.00;64805.59;5049672;28;20040;-54
2022/09/30 01:50:21;;;;;;;16.90;10.48;;;;;;;-145.01;100.00;64805.59;5054214;28;20032;-54
2022/09/30 01:53:16;;;;;;;15.93;9.77;;;;;;;-145.01;100.00;64805.59;5048592;28;20494;-54
2022/09/30 01:55:45;;;;;;;16.48;9.13;;;;;;;-145.01;100.00;64805.59;5051947;28;20126;-54
2022/09/30 01:58:13;;;;;;;14.75;10.15;;;;;;;-145.01;100.00;64805.59;5054312;28;20040;-55
2022/09/30 02:00:41;;;;;;;14.68;8.38;;;;;;;-145.01;100.00;64805.59;5048572;28;20025;-54
2022/09/30 02:03:47;;;;;;;19.30;9.90;;;;;;;-145.01;100.00;64805.59;5055371;28;20044;-54
2022/09/30 02:06:16;;;;;;;19.77;9.65;;;;;;;-145.01;100.00;64805.59;4976764;28;20077;-54
2022/09/30 02:09:04;;;;;;;15.35;9.73;;;;;;;-145.01;100.00;64805.59;4970473;28;20026;-54
2022/09/30 02:11:32;;;;;;;14.65;9.25;;;;;;;-145.01;100.00;64805.59;5025053;28;20037;-55
2022/09/30 02:14:31;;;;;;;17.10;9.48;;;;;;;-145.01;100.00;64805.59;5034046;28;20021;-53
2022/09/30 02:17:16;;;;;;;17.38;9.25;;;;;;;-145.01;100.00;64805.59;5057943;28;20040;-54
2022/09/30 02:19:48;;;;;;;20.73;10.13;;;;;;;-145.01;100.00;64805.59;5055520;28;20768;-55
2022/09/30 02:22:42;;;;;;;13.88;8.82;;;;;;;-145.01;100.00;64805.59;5056257;28;20033;-55
2022/09/30 02:25:08;;;;;;;16.90;11.10;;;;;;;-145.01;100.00;64805.59;5048987;28;20041;-54
2022/09/30 02:27:41;;;;;;;17.95;11.93;;;;;;;-145.01;100.00;64805.59;5049036;28;20033;-54
2022/09/30 02:30:08;;;;;;;15.65;9.70;;;;;;;-145.01;100.00;64805.59;5065008;28;20033;-55
2022/09/30 02:32:58;;;;;;;18.50;11.23;;;;;;;-145.01;100.00;64805.59;5036003;28;20036;-54
2022/09/30 02:35:27;;;;;;;20.52;10.65;;;;;;;-145.01;100.00;64805.59;5082536;28;20029;-54
2022/09/30 02:37:58;;;;;;;23.25;11.38;;;;;;;-145.01;100.00;64805.59;5074617;28;20033;-54
2022/09/30 02:40:35;;;;;;;17.42;9.68;;;;;;;-145.01;100.00;64805.59;5054511;28;20587;-56
2022/09/30 02:43:02;;;;;;;15.10;9.75;;;;;;;-145.01;100.00;64805.59;5057944;28;20025;-55
2022/09/30 02:45:27;;;;;;;15.35;8.68;;;;;;;-145.01;100.00;64805.59;5065815;28;20041;-56
2022/09/30 02:48:15;;;;;;;14.00;9.10;;;;;;;-145.01;100.00;64805.59;5036263;28;20036;-54
2022/09/30 02:50:46;;;;;;;18.52;10.40;;;;;;;-145.01;100.00;64805.59;5066256;28;20048;-53
2022/09/30 02:53:11;;;;;;;;;;;;;;;-145.01;100.00;64805.59;5056971;28;20093;-54
2022/09/30 02:55:48;;;;;;;20.48;9.80;;;;;;;-145.01;100.00;64805.59;5054429;28;20003;-54
2022/09/30 02:58:16;;;;;;;23.30;11.57;;;;;;;-145.01;100.00;64805.59;5056194;28;20058;-52
2022/09/30 03:00:42;;;;;;;20.10;10.50;;;;;;;-145.01;100.00;64805.59;5057820;28;20104;-55
2022/09/30 03:03:14;;;;;;;17.60;11.10;;;;;;;-145.01;100.00;64805.59;5057689;28;20113;-52
2022/09/30 03:05:40;;;;;;;21.55;9.85;;;;;;;-145.01;100.00;64805.59;5066019;28;20399;-53
2022/09/30 03:08:05;;;;;;;15.15;9.18;;;;;;;-145.01;100.00;64805.59;5054312;28;20024;-54
2022/09/30 03:10:31;;;;;;;18.90;10.25;;;;;;;-145.01;100.00;64805.59;5050403;28;20426;-54
2022/09/30 03:13:14;;;;;;;16.30;9.73;;;;;;;-145.01;100.00;64805.59;5052948;28;20357;-54
2022/09/30 03:16:01;;;;;;;15.85;9.00;;;;;;;-145.01;100.00;64805.59;5053713;28;20066;-54
2022/09/30 03:18:36;;;;;;;12.48;7.05;;;;;;;-145.01;100.00;64805.59;5049316;28;20021;-56
2022/09/30 03:21:38;;;;;;;14.73;8.02;;;;;;;-145.01;100.00;64805.59;5049844;28;20087;-53
2022/09/30 03:24:16;;;;;;;13.80;8.15;;;;;;;-145.01;100.00;64805.59;5072635;28;20078;-56
2022/09/30 03:26:45;;;;;;;18.48;9.00;;;;;;;-145.01;100.00;64805.59;5049977;28;20040;-55
2022/09/30 03:29:25;;;;;;;12.00;8.60;;;;;;;-145.01;100.00;64805.59;5054542;28;20103;-55
2022/09/30 03:31:58;;;;;;;13.27;8.27;;;;;;;-145.01;100.00;64805.59;5052468;28;20048;-55
2022/09/30 03:34:36;;;;;;;11.90;7.70;;;;;;;-145.01;100.00;64805.59;5042740;28;20032;-53
2022/09/30 03:37:32;;;;;;;14.40;7.93;;;;;;;-145.01;100.00;64805.59;5053094;28;20039;-55
2022/09/30 03:40:09;;;;;;;16.58;8.13;;;;;;;-145.01;100.00;64805.59;5052261;28;20109;-54
2022/09/30 03:42:40;;;;;;;13.65;8.40;;;;;;;-145.01;100.00;64805.59;5049733;28;20063;-56
2022/09/30 03:45:32;;;;;;;13.40;8.38;;;;;;;-145.01;100.00;64805.59;5037962;28;20047;-55
2022/09/30 03:48:00;;;;;;;13.10;8.60;;;;;;;-145.01;100.00;64805.59;5059519;28;20031;-55
2022/09/30 03:50:26;;;;;;;18.23;9.20;;;;;;;-145.01;100.00;64805.59;5056548;28;20032;-55
2022/09/30 03:52:51;;;;;;;11.73;7.95;;;;;;;-145.01;100.00;64805.59;5055332;28;20107;-54
2022/09/30 03:55:18;;;;;;;13.82;8.98;;;;;;;-145.01;100.00;64805.59;5053503;28;20139;-56
2022/09/30 03:57:43;;;;;;;16.73;8.95;;;;;;;-145.01;100.00;64805.59;5053936;28;20165;-55
2022/09/30 04:00:13;;;;;;;14.88;8.63;;;;;;;-145.01;100.00;64805.59;5049156;28;20064;-56
2022/09/30 04:02:39;;;;;;;14.90;7.82;;;;;;;-145.01;100.00;64805.59;5048682;28;20036;-55
2022/09/30 04:05:05;;;;;;;13.07;8.13;;;;;;;-145.01;100.00;64805.59;5049086;28;20128;-55
2022/09/30 04:07:31;;;;;;;13.10;7.50;;;;;;;-145.01;100.00;64805.59;5047646;28;20033;-56
2022/09/30 04:09:56;;;;;;;16.08;7.47;;;;;;;-145.01;100.00;64805.59;5054308;28;20566;-52
2022/09/30 04:12:22;;;;;;;13.52;8.32;;;;;;;-145.01;100.00;64805.59;5057063;28;20017;-57
2022/09/30 04:14:47;;;;;;;14.77;8.27;;;;;;;-145.01;100.00;64805.59;5059925;28;20024;-56
2022/09/30 04:17:13;;;;;;;17.05;8.93;;;;;;;-145.01;100.00;64805.59;5052832;28;20078;-56
2022/09/30 04:19:39;;;;;;;18.55;8.98;;;;;;;-145.01;100.00;64805.59;5056265;28;20059;-55
2022/09/30 04:22:05;;;;;;;13.98;7.88;;;;;;;-145.01;100.00;64805.59;5054094;28;20049;-56
2022/09/30 04:24:30;;;;;;;13.10;8.05;;;;;;;-145.01;100.00;64805.59;5050804;28;20025;-57
2022/09/30 04:26:56;;;;;;;13.75;7.78;;;;;;;-145.01;100.00;64805.59;5053301;28;20016;-56
2022/09/30 04:29:21;;;;;;;14.20;9.43;;;;;;;-145.01;100.00;64805.59;5048804;28;20082;-56
2022/09/30 04:31:47;;;;;;;13.77;8.23;;;;;;;-145.01;100.00;64805.59;5054295;28;20025;-57
2022/09/30 04:34:12;;;;;;;13.90;8.00;;;;;;;-145.01;100.00;64805.59;5057027;28;20033;-55
2022/09/30 04:36:37;;;;;;;75.78;8.30;;;;;;;-145.01;100.00;64805.59;5047415;28;20021;-55
2022/09/30 04:39:03;;;;;;;19.38;8.23;;;;;;;-145.01;100.00;64805.59;5048654;28;20025;-56
2022/09/30 04:41:28;;;;;;;21.27;9.40;;;;;;;-145.01;100.00;64805.59;5054483;28;20021;-55
2022/09/30 04:43:54;;;;;;;15.98;8.50;;;;;;;-145.01;100.00;64805.59;5053828;28;20027;-54
2022/09/30 04:46:21;;;;;;;14.63;9.15;;;;;;;-145.01;100.00;64805.59;5052524;28;20029;-55
2022/09/30 04:48:47;;;;;;;16.33;9.00;;;;;;;-145.01;100.00;64805.59;5049678;28;20518;-55
2022/09/30 04:51:13;;;;;;;46.95;8.90;;;;;;;-145.01;100.00;64805.59;5048321;28;20033;-56
2022/09/30 04:53:39;;;;;;;32.80;8.00;;;;;;;-145.01;100.00;64805.59;5048096;28;20031;-55
2022/09/30 04:56:04;;;;;;;14.93;7.03;;;;;;;-145.01;100.00;64805.59;5047393;28;20414;-53
2022/09/30 04:58:31;;;;;;;14.70;6.65;;;;;;;-145.01;100.00;64805.59;5048881;28;20745;-54
2022/09/30 05:01:03;;;;;;;11.40;6.68;;;;;;;-145.01;100.00;64805.59;5054234;28;20646;-57
2022/09/30 05:03:29;;;;;;;13.50;7.47;;;;;;;-145.01;100.00;64805.59;5060624;28;20032;-55
2022/09/30 05:05:54;;;;;;;13.07;7.40;;;;;;;-145.01;100.00;64805.59;5049878;28;20067;-55
2022/09/30 05:08:21;;;;;;;11.23;6.70;;;;;;;-145.01;100.00;64805.59;5049058;28;20044;-53
2022/09/30 05:10:57;;;;;;;12.07;5.88;;;;;;;-145.01;100.00;64805.59;5052739;28;20492;-55
2022/09/30 05:13:23;;;;;;;11.40;6.85;;;;;;;-145.01;100.00;64805.59;5055730;28;20029;-55
2022/09/30 05:15:49;;;;;;;25.80;7.18;;;;;;;-145.01;100.00;64805.59;5055862;28;20021;-55
2022/09/30 05:18:15;;;;;;;11.40;7.55;;;;;;;-145.01;100.00;64805.59;5057645;28;20468;-54
2022/09/30 05:20:41;;;;;;;20.40;7.43;;;;;;;-145.01;100.00;64805.59;5056569;28;20044;-54
2022/09/30 05:23:06;;;;;;;12.85;7.07;;;;;;;-145.01;100.00;64805.59;5054547;28;20460;-54
2022/09/30 05:25:33;;;;;;;12.55;8.15;;;;;;;-145.01;100.00;64805.59;5052582;28;20025;-56
2022/09/30 05:27:59;;;;;;;14.02;7.38;;;;;;;-145.01;100.00;64805.59;5055287;28;20086;-54
2022/09/30 05:30:24;;;;;;;13.68;8.52;;;;;;;-145.01;100.00;64805.59;5053674;28;20575;-53
2022/09/30 05:32:50;;;;;;;15.65;8.65;;;;;;;-145.01;100.00;64805.59;5055759;28;20029;-57
2022/09/30 05:35:15;;;;;;;16.17;7.90;;;;;;;-145.01;100.00;64805.59;5055946;28;20040;-54
2022/09/30 05:37:41;;;;;;;13.07;8.25;;;;;;;-145.01;100.00;64805.59;5055302;28;20036;-54
2022/09/30 05:40:07;;;;;;;14.05;8.82;;;;;;;-145.01;100.00;64805.59;5059837;28;20104;-54
2022/09/30 05:42:34;;;;;;;11.52;7.63;;;;;;;-145.01;100.00;64805.59;5052172;28;20025;-55
2022/09/30 05:45:00;;;;;;;11.77;7.55;;;;;;;-145.01;100.00;64805.59;5051249;28;20029;-54
2022/09/30 05:47:25;;;;;;;13.05;7.93;;;;;;;-145.01;100.00;64805.59;5061827;28;20032;-54
2022/09/30 05:49:51;;;;;;;14.48;7.93;;;;;;;-145.01;100.00;64805.59;5059449;28;20559;-55
2022/09/30 05:52:16;;;;;;;12.57;7.78;;;;;;;-145.01;100.00;64805.59;5051551;28;20542;-54
2022/09/30 05:54:42;;;;;;;13.25;7.72;;;;;;;-145.01;100.00;64805.59;5051328;28;20041;-54
2022/09/30 05:57:07;;;;;;;16.17;7.60;;;;;;;-145.01;100.00;64805.59;5057875;28;20029;-53
2022/09/30 05:59:33;;;;;;;12.75;7.90;;;;;;;-145.01;100.00;64805.59;5060801;28;20024;-54
2022/09/30 06:01:58;;;;;;;12.65;7.30;;;;;;;-145.01;100.00;64805.59;5061855;28;20039;-55
2022/09/30 06:04:23;;;;;;;12.05;5.93;;;;;;;-145.01;100.00;64805.59;5062083;28;20028;-55
2022/09/30 06:06:49;;;;;;;9.00;5.93;;;;;;;-145.01;100.00;64805.59;5050007;28;20025;-54
2022/09/30 06:09:16;;;;;;;12.38;6.15;;;;;;;-145.01;100.00;64805.59;5056700;28;20039;-52
2022/09/30 06:11:41;;;;;;;10.18;6.47;;;;;;;-145.01;100.00;64805.59;5050957;28;20029;-54
2022/09/30 06:14:07;;;;;;;7.15;4.65;;;;;;;-145.01;100.00;64805.59;5062594;28;20078;-54
2022/09/30 06:16:33;;;;;;;7.28;4.57;;;;;;;-145.01;100.00;64805.59;5057384;28;20486;-57
2022/09/30 06:18:58;;;;;;;7.47;3.97;;;;;;;-145.01;100.00;64805.59;5056464;28;20485;-55
2022/09/30 06:21:23;;;;;;;5.25;3.40;;;;;;;-145.01;100.00;64805.59;5051001;28;20498;-56
2022/09/30 06:23:49;;;;;;;8.95;4.00;;;;;;;-145.01;100.00;64805.59;5056960;28;20028;-56
2022/09/30 06:26:15;;;;;;;5.28;3.42;;;;;;;-145.01;100.00;64805.59;5059039;28;20017;-56
2022/09/30 06:28:40;;;;;;;8.23;3.13;;;;;;;-145.01;100.00;64805.59;5084002;28;20040;-56
2022/09/30 06:31:06;;;;;;;5.80;3.47;;;;;;;-145.01;100.00;64805.59;5056625;28;20029;-56
2022/09/30 06:33:31;;;;;;;4.88;2.80;;;;;;;-145.01;100.00;64805.59;5055440;28;20028;-54
2022/09/30 06:35:57;;;;;;;7.45;3.30;;;;;;;-145.01;100.00;64805.59;5051095;28;20029;-54
2022/09/30 06:38:23;;;;;;;11.05;6.15;;;;;;;-145.01;100.00;64805.59;5053137;28;20021;-56
2022/09/30 06:40:49;;;;;;;12.15;6.82;;;;;;;-145.01;100.00;64805.59;5058953;28;20101;-56
2022/09/30 06:43:17;;;;;;;7.28;5.03;;;;;;;-145.01;100.00;64805.59;5034806;28;20124;-56
2022/09/30 06:45:46;;;;;;;20.55;4.50;;;;;;;-145.01;100.00;64805.59;5055795;28;20017;-56
2022/09/30 06:48:12;;;;;;;25.58;5.93;;;;;;;-145.01;100.00;64805.59;5059444;28;20477;-55
2022/09/30 06:50:38;;;;;;;32.95;5.50;;;;;;;-145.01;100.00;64805.59;5061459;28;20040;-56
2022/09/30 06:53:05;;;;;;;19.63;4.10;;;;;;;-145.01;100.00;64805.59;5053862;28;20051;-56
2022/09/30 06:55:30;;;;;;;10.05;3.33;;;;;;;-145.01;100.00;64805.59;5050201;28;20379;-55
2022/09/30 06:57:56;;;;;;;4.38;2.97;;;;;;;-145.01;100.00;64805.59;5057368;28;20032;-56
2022/09/30 07:00:22;;;;;;;6.93;5.15;;;;;;;-145.01;100.00;64805.59;5051197;28;20047;-56
2022/09/30 07:02:48;;;;;;;5.40;2.72;;;;;;;-145.01;100.00;64805.59;5053321;28;20523;-56
2022/09/30 07:05:14;;;;;;;5.35;3.03;;;;;;;-145.01;100.00;64805.59;5052168;28;20076;-56
2022/09/30 07:07:41;;;;;;;4.78;2.80;;;;;;;-145.01;100.00;64805.59;5054603;28;20028;-54
2022/09/30 07:10:06;;;;;;;3.95;2.60;;;;;;;-145.01;100.00;64805.59;5057054;28;20051;-57
2022/09/30 07:12:33;;;;;;;7.07;2.50;;;;;;;-145.01;100.00;64805.59;5049195;28;20706;-55
2022/09/30 07:14:59;;;;;;;4.82;2.80;;;;;;;-145.01;100.00;64805.59;5050010;28;20116;-56
2022/09/30 07:17:25;;;;;;;4.30;2.90;;;;;;;-145.01;100.00;64805.59;5050279;28;20095;-55
2022/09/30 07:19:51;;;;;;;4.28;2.40;;;;;;;-145.01;100.00;64805.59;5050159;28;20055;-55
2022/09/30 07:22:33;;;;;;;3.40;2.42;;;;;;;-145.01;100.00;64805.59;5049861;28;20033;-56
2022/09/30 07:24:59;;;;;;;3.67;2.42;;;;;;;-145.01;100.00;64805.59;5055627;28;20028;-55
2022/09/30 07:27:25;;;;;;;7.72;2.60;;;;;;;-145.01;100.00;64805.59;5056599;28;20029;-56
2022/09/30 07:29:51;;;;;;;3.80;2.50;;;;;;;-145.01;100.00;64805.59;5056599;28;20036;-56
2022/09/30 07:32:18;;;;;;;4.05;2.20;;;;;;;-145.01;100.00;64805.59;5057311;28;20516;-55
2022/09/30 07:34:44;;;;;;;4.05;2.20;;;;;;;-145.01;100.00;64805.59;5053330;28;20151;-55
2022/09/30 07:37:11;;;;;;;4.90;2.58;;;;;;;-145.01;100.00;64805.59;5049588;28;20422;-55
2022/09/30 07:39:36;;;;;;;6.57;2.75;;;;;;;-145.01;100.00;64805.59;5048430;28;20025;-56
2022/09/30 07:42:02;;;;;;;3.85;2.40;;;;;;;-145.01;100.00;64805.59;5054609;28;20056;-55
2022/09/30 07:44:28;;;;;;;4.63;2.42;;;;;;;-145.01;100.00;64805.59;5031551;28;20487;-56
2022/09/30 07:46:53;;;;;;;3.58;2.10;;;;;;;-145.01;100.00;64805.59;5057131;28;20020;-55
2022/09/30 07:49:24;;;;;;;4.57;2.55;;;;;;;-145.01;100.00;64805.59;5057431;28;20036;-56
2022/09/30 07:51:50;;;;;;;4.00;2.40;;;;;;;-145.01;100.00;64805.59;5054732;28;20103;-56
2022/09/30 07:54:17;;;;;;;3.00;2.03;;;;;;;-145.01;100.00;64805.59;5056483;28;20478;-56
2022/09/30 07:56:43;;;;;;;5.38;2.33;;;;;;;-145.01;100.00;64805.59;5053674;28;20616;-59
2022/09/30 07:59:09;;;;;;;6.15;2.50;;;;;;;-145.01;100.00;64805.59;5048013;28;20029;-56
2022/09/30 08:01:34;;;;;;;3.78;2.17;;;;;;;-145.01;100.00;64805.59;5052928;28;20159;-55
2022/09/30 08:04:02;;;;;;;4.38;2.67;;;;;;;-145.01;100.00;64805.59;5049001;28;20091;-55
2022/09/30 08:06:28;;;;;;;5.75;2.50;;;;;;;-145.01;100.00;64805.59;5047950;28;20040;-55
2022/09/30 08:08:55;;;;;;;3.58;2.40;;;;;;;-145.01;100.00;64805.59;5055249;28;20067;-56
2022/09/30 08:11:21;;;;;;;4.45;2.53;;;;;;;-145.01;100.00;64805.59;5055928;28;20083;-56
2022/09/30 08:13:56;;;;;;;3.20;2.50;;;;;;;-145.01;100.00;64805.59;5052909;28;20017;-55
2022/09/30 08:16:22;;;;;;;3.55;2.38;;;;;;;-145.01;100.00;64805.59;5051269;28;20032;-56
2022/09/30 08:18:48;;;;;;;4.97;2.65;;;;;;;-145.01;100.00;64805.59;5048985;28;20118;-56
2022/09/30 08:21:13;;;;;;;3.53;2.33;;;;;;;-145.01;100.00;64805.59;5053765;28;20694;-55
2022/09/30 08:23:39;;;;;;;5.15;2.55;;;;;;;-145.01;100.00;64805.59;5057437;28;20119;-55
2022/09/30 08:26:09;;;;;;;4.38;2.50;;;;;;;-145.01;100.00;64805.59;5057354;28;20029;-55
2022/09/30 08:28:35;;;;;;;4.13;2.70;;;;;;;-145.01;100.00;64805.59;5052336;28;20479;-56
2022/09/30 08:31:08;;;;;;;4.65;2.70;;;;;;;-145.01;100.00;64805.59;5051787;28;20040;-55
2022/09/30 08:33:34;;;;;;;4.50;3.03;;;;;;;-145.01;100.00;64805.59;5049500;28;20182;-55
2022/09/30 08:36:22;;;;;;;5.35;2.80;;;;;;;-145.01;100.00;64805.59;5047786;28;20108;-54
2022/09/30 08:38:47;;;;;;;5.65;3.10;;;;;;;-145.01;100.00;64805.59;5047661;28;20754;-56
2022/09/30 08:41:13;;;;;;;7.70;3.53;;;;;;;-145.01;100.00;64805.59;5055602;28;20036;-55
2022/09/30 08:43:56;;;;;;;18.83;4.30;;;;;;;-145.01;100.00;64805.59;5051117;28;20105;-56
2022/09/30 08:46:34;;;;;;;13.02;3.90;;;;;;;-145.01;100.00;64805.59;5050976;28;20095;-54
2022/09/30 08:49:08;;;;;;;16.20;3.95;;;;;;;-145.01;100.00;64805.59;5055367;28;20045;-55
2022/09/30 08:51:44;;;;;;;11.23;3.97;;;;;;;-145.01;100.00;64805.59;5051235;28;20025;-55
2022/09/30 08:54:15;;;;;;;7.68;3.33;;;;;;;-145.01;100.00;64805.59;5034614;28;20025;-56
2022/09/30 08:56:41;;;;;;;10.27;3.30;;;;;;;-145.01;100.00;64805.59;5051320;28;20036;-55
2022/09/30 08:59:31;;;;;;;7.97;3.45;;;;;;;-145.01;100.00;64805.59;5053349;28;20503;-56
2022/09/30 09:02:21;;;;;;;13.38;3.75;;;;;;;-145.01;100.00;64805.59;5067150;28;20062;-57
2022/09/30 09:04:47;;;;;;;6.82;3.50;;;;;;;-145.01;100.00;64805.59;5055240;28;20503;-55
2022/09/30 09:07:31;;;;;;;9.93;4.00;;;;;;;-145.01;100.00;64805.59;5040842;28;20124;-55
2022/09/30 09:09:57;;;;;;;9.38;4.43;;;;;;;-145.01;100.00;64805.59;5063117;28;20028;-56
2022/09/30 09:12:31;;;;;;;10.10;4.05;;;;;;;-145.01;100.00;64805.59;5055393;28;20135;-55
2022/09/30 09:15:34;;;;;;;9.95;4.00;;;;;;;-145.01;100.00;64805.59;5057422;28;20033;-55
2022/09/30 09:18:24;;;;;;;7.47;4.25;;;;;;;-145.01;100.00;64805.59;5056928;28;20024;-55
2022/09/30 09:20:54;;;;;;;10.57;4.63;;;;;;;-145.01;100.00;64805.59;5056942;28;20564;-56
2022/09/30 09:23:19;;;;;;;9.70;4.65;;;;;;;-145.01;100.00;64805.59;5056002;28;20686;-56
2022/09/30 09:25:48;;;;;;;11.40;5.30;;;;;;;-145.01;100.00;64805.59;5059549;28;20083;-56
2022/09/30 09:28:34;;;;;;;9.35;6.38;;;;;;;-145.01;100.00;64805.59;5057186;28;20064;-56
2022/09/30 09:31:00;;;;;;;13.30;5.90;;;;;;;-145.01;100.00;64805.59;5050536;28;20021;-55
2022/09/30 09:33:31;;;;;;;13.07;6.38;;;;;;;-145.01;100.00;64805.59;5051203;28;20066;-56
2022/09/30 09:36:15;;;;;;;13.45;7.15;;;;;;;-145.01;100.00;64805.59;5053509;28;20025;-56
2022/09/30 09:39:05;;;;;;;12.82;6.30;;;;;;;-145.01;100.00;64805.59;5055750;28;20063;-55
2022/09/30 09:41:59;;;;;;;10.63;6.20;;;;;;;-145.01;100.00;64805.59;5057926;28;20101;-56
2022/09/30 09:44:25;;;;;;;11.73;6.57;;;;;;;-145.01;100.00;64805.59;5052850;28;20052;-55
2022/09/30 09:47:14;;;;;;;8.90;6.22;;;;;;;-145.01;100.00;64805.59;5058400;28;20029;-55
2022/09/30 09:49:50;;;;;;;9.50;6.57;;;;;;;-145.01;100.00;64805.59;5055014;28;20043;-55
2022/09/30 09:52:46;;;;;;;8.80;5.60;;;;;;;-145.01;100.00;64805.59;5045712;28;20654;-54
2022/09/30 09:55:12;;;;;;;9.27;5.72;;;;;;;-145.01;100.00;64805.59;5050569;28;20088;-53
2022/09/30 09:57:39;;;;;;;12.15;5.88;;;;;;;-145.01;100.00;64805.59;5066854;28;20112;-55
2022/09/30 10:03:07;;;;;;;10.25;5.82;;;;;;;-145.01;100.00;64805.59;5056474;28;20459;-55
2022/09/30 10:05:38;;;;;;;15.75;5.85;;;;;;;-145.01;100.00;64805.59;5055109;28;20046;-54
2022/09/30 10:08:20;;;;;;;14.40;6.50;;;;;;;-145.01;100.00;64805.59;5056341;28;20021;-55
2022/09/30 10:10:50;;;;;;;11.43;4.70;;;;;;;-145.01;100.00;64805.59;5059331;28;20029;-55
2022/09/30 10:13:24;;;;;;;13.80;5.10;;;;;;;-145.01;100.00;64805.59;5055023;28;20029;-54
2022/09/30 10:15:52;;;;;;;12.60;5.40;;;;;;;-145.01;100.00;64805.59;5054911;28;20059;-54
2022/09/30 10:18:36;;;;;;;8.20;5.20;;;;;;;-145.01;100.00;64805.59;5050828;28;20021;-54
2022/09/30 10:21:02;;;;;;;10.90;5.60;;;;;;;-145.01;100.00;64805.59;5042237;28;20021;-55
2022/09/30 10:23:32;;;;;;;15.35;5.65;;;;;;;-145.01;100.00;64805.59;5057243;28;20025;-55
2022/09/30 10:26:03;;;;;;;8.88;5.15;;;;;;;-145.01;100.00;64805.59;5061165;28;20100;-56
2022/09/30 10:28:34;;;;;;;14.50;5.50;;;;;;;-145.01;100.00;64805.59;5058012;28;20040;-55
2022/09/30 10:31:05;;;;;;;7.95;5.18;;;;;;;-145.01;100.00;64805.59;5050555;28;20074;-55
2022/09/30 10:33:45;;;;;;;7.38;4.63;;;;;;;-145.01;100.00;64805.59;5042944;28;20032;-55
2022/09/30 10:36:12;;;;;;;10.27;4.72;;;;;;;-145.01;100.00;64805.59;5050390;28;20031;-55
2022/09/30 10:38:45;;;;;;;7.15;4.93;;;;;;;-145.01;100.00;64805.59;5049320;28;20116;-55
2022/09/30 10:41:11;;;;;;;7.85;5.15;;;;;;;-145.01;100.00;64805.59;5049283;28;20060;-55
2022/09/30 10:43:40;;;;;;;12.05;5.60;;;;;;;-145.01;100.00;64805.59;5053014;28;20060;-54
2022/09/30 10:46:07;;;;;;;11.40;6.07;;;;;;;-145.01;100.00;64805.59;5020737;28;20103;-55
2022/09/30 10:48:34;;;;;;;13.00;5.97;;;;;;;-145.01;100.00;64805.59;5057050;28;20036;-56
2022/09/30 10:51:00;;;;;;;19.65;5.55;;;;;;;-145.01;100.00;64805.59;5062909;28;20116;-55
2022/09/30 10:53:28;;;;;;;14.13;5.75;;;;;;;-145.01;100.00;64805.59;5056598;28;20124;-54
2022/09/30 10:55:54;;;;;;;17.40;5.88;;;;;;;-145.01;100.00;64805.59;5056968;28;20112;-55
2022/09/30 10:58:27;;;;;;;11.80;5.45;;;;;;;-145.01;100.00;64805.59;5055843;28;20029;-55
2022/09/30 11:01:15;;;;;;;13.80;6.18;;;;;;;-145.01;100.00;64805.59;5058458;28;20082;-54
2022/09/30 11:04:00;;;;;;;14.43;5.32;;;;;;;-145.01;100.00;64805.59;5052496;28;20036;-55
2022/09/30 11:06:28;;;;;;;12.40;5.97;;;;;;;-145.01;100.00;64805.59;5059991;28;20499;-55
2022/09/30 11:09:01;;;;;;;15.77;5.90;;;;;;;-145.01;100.00;64805.59;5050300;28;20035;-55
2022/09/30 11:11:29;;;;;;;17.92;5.18;;;;;;;-145.01;100.00;64805.59;5052089;28;20056;-56
2022/09/30 11:13:56;;;;;;;9.05;5.47;;;;;;;-145.01;100.00;64805.59;5070218;28;20025;-56
2022/09/30 11:16:45;;;;;;;12.20;5.88;;;;;;;-145.01;100.00;64805.59;5053456;28;20032;-54
2022/09/30 11:19:23;;;;;;;4.82;2.47;;;;;;;-145.01;100.00;64805.59;5055625;28;20052;-54
2022/09/30 11:22:16;;;;;;;7.97;2.47;;;;;;;-145.01;100.00;64805.59;5048792;28;20068;-53